sensor_id;sensor_type;location;lat;lon;timestamp;temperature;humidity
27266;DHT22;14766;51.380;13.762;2023-02-28T00:01:27;5.00;60.90
27266;DHT22;14766;51.380;13.762;2023-02-28T00:03:55;5.00;60.80
27266;DHT22;14766;51.380;13.762;2023-02-28T00:06:23;5.00;60.90
27266;DHT22;14766;51.380;13.762;2023-02-28T00:08:51;5.00;61.00
27266;DHT22;14766;51.380;13.762;2023-02-28T00:11:18;5.00;61.10
27266;DHT22;14766;51.380;13.762;2023-02-28T00:13:46;5.00;61.10
27266;DHT22;14766;51.380;13.762;2023-02-28T00:16:17;5.00;61.20
27266;DHT22;14766;51.380;13.762;2023-02-28T00:18:45;5.00;61.20
27266;DHT22;14766;51.380;13.762;2023-02-28T00:21:15;5.00;61.20
27266;DHT22;14766;51.380;13.762;2023-02-28T00:23:42;5.00;61.30
27266;DHT22;14766;51.380;13.762;2023-02-28T00:26:10;5.00;61.20
27266;DHT22;14766;51.380;13.762;2023-02-28T00:28:40;5.00;61.20
27266;DHT22;14766;51.380;13.762;2023-02-28T00:31:07;4.90;61.30
27266;DHT22;14766;51.380;13.762;2023-02-28T00:33:34;5.00;61.30
27266;DHT22;14766;51.380;13.762;2023-02-28T00:36:04;4.90;61.30
27266;DHT22;14766;51.380;13.762;2023-02-28T00:38:31;4.90;61.40
27266;DHT22;14766;51.380;13.762;2023-02-28T00:41:00;4.90;61.50
27266;DHT22;14766;51.380;13.762;2023-02-28T00:43:35;4.90;61.40
27266;DHT22;14766;51.380;13.762;2023-02-28T00:46:04;4.80;61.40
27266;DHT22;14766;51.380;13.762;2023-02-28T00:48:31;4.80;61.40
27266;DHT22;14766;51.380;13.762;2023-02-28T00:50:58;4.80;61.50
27266;DHT22;14766;51.380;13.762;2023-02-28T00:53:27;4.80;61.60
27266;DHT22;14766;51.380;13.762;2023-02-28T00:55:56;4.80;61.70
27266;DHT22;14766;51.380;13.762;2023-02-28T00:58:25;4.80;61.90
27266;DHT22;14766;51.380;13.762;2023-02-28T01:00:52;4.70;61.80
27266;DHT22;14766;51.380;13.762;2023-02-28T01:03:21;4.70;61.80
27266;DHT22;14766;51.380;13.762;2023-02-28T01:05:50;4.70;61.90
27266;DHT22;14766;51.380;13.762;2023-02-28T01:08:17;4.70;62.20
27266;DHT22;14766;51.380;13.762;2023-02-28T01:10:44;4.70;62.30
27266;DHT22;14766;51.380;13.762;2023-02-28T01:13:12;4.70;62.30
27266;DHT22;14766;51.380;13.762;2023-02-28T01:15:43;4.60;62.30
27266;DHT22;14766;51.380;13.762;2023-02-28T01:18:12;4.70;62.40
27266;DHT22;14766;51.380;13.762;2023-02-28T01:20:39;4.70;62.50
27266;DHT22;14766;51.380;13.762;2023-02-28T01:23:08;4.70;62.50
27266;DHT22;14766;51.380;13.762;2023-02-28T01:25:36;4.70;62.60
27266;DHT22;14766;51.380;13.762;2023-02-28T01:28:05;4.70;62.60
27266;DHT22;14766;51.380;13.762;2023-02-28T01:30:33;4.70;62.70
27266;DHT22;14766;51.380;13.762;2023-02-28T01:33:00;4.70;62.60
27266;DHT22;14766;51.380;13.762;2023-02-28T01:35:28;4.70;62.60
27266;DHT22;14766;51.380;13.762;2023-02-28T01:37:55;4.70;62.50
27266;DHT22;14766;51.380;13.762;2023-02-28T01:40:30;4.70;62.50
27266;DHT22;14766;51.380;13.762;2023-02-28T01:42:57;4.60;62.40
27266;DHT22;14766;51.380;13.762;2023-02-28T01:47:59;4.60;62.20
27266;DHT22;14766;51.380;13.762;2023-02-28T01:50:31;4.70;62.20
27266;DHT22;14766;51.380;13.762;2023-02-28T01:53:01;4.60;62.40
27266;DHT22;14766;51.380;13.762;2023-02-28T01:55:32;4.60;62.50
27266;DHT22;14766;51.380;13.762;2023-02-28T01:58:02;4.60;62.60
27266;DHT22;14766;51.380;13.762;2023-02-28T02:00:31;4.60;62.60
27266;DHT22;14766;51.380;13.762;2023-02-28T02:03:03;4.60;62.70
27266;DHT22;14766;51.380;13.762;2023-02-28T02:05:32;4.60;62.60
27266;DHT22;14766;51.380;13.762;2023-02-28T02:08:06;4.60;62.60
27266;DHT22;14766;51.380;13.762;2023-02-28T02:10:39;4.60;62.50
27266;DHT22;14766;51.380;13.762;2023-02-28T02:13:45;4.60;62.70
27266;DHT22;14766;51.380;13.762;2023-02-28T02:19:14;4.60;62.40
27266;DHT22;14766;51.380;13.762;2023-02-28T02:37:50;4.40;62.30
27266;DHT22;14766;51.380;13.762;2023-02-28T02:40:23;4.40;62.30
27266;DHT22;14766;51.380;13.762;2023-02-28T02:43:01;4.40;62.30
27266;DHT22;14766;51.380;13.762;2023-02-28T02:45:53;4.40;62.30
27266;DHT22;14766;51.380;13.762;2023-02-28T02:48:26;4.30;62.30
27266;DHT22;14766;51.380;13.762;2023-02-28T02:51:03;4.40;62.50
27266;DHT22;14766;51.380;13.762;2023-02-28T02:53:35;4.30;62.40
27266;DHT22;14766;51.380;13.762;2023-02-28T02:56:06;4.30;62.50
27266;DHT22;14766;51.380;13.762;2023-02-28T02:58:38;4.30;62.50
27266;DHT22;14766;51.380;13.762;2023-02-28T03:01:14;4.30;62.50
27266;DHT22;14766;51.380;13.762;2023-02-28T03:03:43;4.30;62.60
27266;DHT22;14766;51.380;13.762;2023-02-28T03:06:12;4.30;62.60
27266;DHT22;14766;51.380;13.762;2023-02-28T03:08:39;4.30;62.90
27266;DHT22;14766;51.380;13.762;2023-02-28T03:11:11;4.20;62.60
27266;DHT22;14766;51.380;13.762;2023-02-28T03:35:14;3.90;62.50
27266;DHT22;14766;51.380;13.762;2023-02-28T03:38:10;3.90;62.50
27266;DHT22;14766;51.380;13.762;2023-02-28T03:40:44;3.90;62.60
27266;DHT22;14766;51.380;13.762;2023-02-28T03:43:17;3.80;62.50
27266;DHT22;14766;51.380;13.762;2023-02-28T03:45:46;3.80;62.50
27266;DHT22;14766;51.380;13.762;2023-02-28T03:48:26;3.70;62.50
27266;DHT22;14766;51.380;13.762;2023-02-28T03:50:57;3.70;62.40
27266;DHT22;14766;51.380;13.762;2023-02-28T03:53:57;3.70;62.50
27266;DHT22;14766;51.380;13.762;2023-02-28T03:56:34;3.70;62.50
27266;DHT22;14766;51.380;13.762;2023-02-28T03:59:13;3.60;62.40
27266;DHT22;14766;51.380;13.762;2023-02-28T04:01:43;3.60;62.50
27266;DHT22;14766;51.380;13.762;2023-02-28T04:04:11;3.60;62.50
27266;DHT22;14766;51.380;13.762;2023-02-28T04:06:40;3.60;62.50
27266;DHT22;14766;51.380;13.762;2023-02-28T04:09:09;3.60;62.50
27266;DHT22;14766;51.380;13.762;2023-02-28T04:14:12;3.50;62.50
27266;DHT22;14766;51.380;13.762;2023-02-28T04:16:41;3.50;62.60
27266;DHT22;14766;51.380;13.762;2023-02-28T04:19:11;3.50;62.70
27266;DHT22;14766;51.380;13.762;2023-02-28T04:21:40;3.50;63.60
27266;DHT22;14766;51.380;13.762;2023-02-28T04:24:10;3.40;62.70
27266;DHT22;14766;51.380;13.762;2023-02-28T04:26:43;3.40;62.70
27266;DHT22;14766;51.380;13.762;2023-02-28T04:29:13;3.40;62.70
27266;DHT22;14766;51.380;13.762;2023-02-28T04:31:41;3.40;62.60
27266;DHT22;14766;51.380;13.762;2023-02-28T04:34:08;3.40;62.80
27266;DHT22;14766;51.380;13.762;2023-02-28T04:36:35;3.40;63.00
27266;DHT22;14766;51.380;13.762;2023-02-28T04:39:02;3.40;63.90
27266;DHT22;14766;51.380;13.762;2023-02-28T04:41:31;3.30;63.10
27266;DHT22;14766;51.380;13.762;2023-02-28T04:43:59;3.30;63.10
27266;DHT22;14766;51.380;13.762;2023-02-28T04:46:26;3.30;62.90
27266;DHT22;14766;51.380;13.762;2023-02-28T04:48:53;3.30;63.00
27266;DHT22;14766;51.380;13.762;2023-02-28T04:51:21;3.30;62.90
27266;DHT22;14766;51.380;13.762;2023-02-28T04:53:48;3.30;63.00
27266;DHT22;14766;51.380;13.762;2023-02-28T04:56:17;3.30;63.90
27266;DHT22;14766;51.380;13.762;2023-02-28T04:58:45;3.30;63.00
27266;DHT22;14766;51.380;13.762;2023-02-28T05:01:22;3.20;63.00
27266;DHT22;14766;51.380;13.762;2023-02-28T05:03:51;3.20;63.00
27266;DHT22;14766;51.380;13.762;2023-02-28T05:06:22;3.20;63.00
27266;DHT22;14766;51.380;13.762;2023-02-28T05:08:51;3.20;63.00
27266;DHT22;14766;51.380;13.762;2023-02-28T05:11:29;3.10;62.80
27266;DHT22;14766;51.380;13.762;2023-02-28T05:14:10;3.10;62.70
27266;DHT22;14766;51.380;13.762;2023-02-28T05:16:38;3.10;62.80
27266;DHT22;14766;51.380;13.762;2023-02-28T05:19:05;3.10;62.80
27266;DHT22;14766;51.380;13.762;2023-02-28T05:21:41;3.00;62.80
27266;DHT22;14766;51.380;13.762;2023-02-28T05:24:12;3.00;62.90
27266;DHT22;14766;51.380;13.762;2023-02-28T05:26:41;3.00;63.00
27266;DHT22;14766;51.380;13.762;2023-02-28T05:29:09;2.90;62.90
27266;DHT22;14766;51.380;13.762;2023-02-28T05:31:37;2.90;62.80
27266;DHT22;14766;51.380;13.762;2023-02-28T05:34:04;2.90;62.80
27266;DHT22;14766;51.380;13.762;2023-02-28T05:36:32;2.90;63.00
27266;DHT22;14766;51.380;13.762;2023-02-28T05:39:00;2.80;62.90
27266;DHT22;14766;51.380;13.762;2023-02-28T05:41:27;2.80;63.00
27266;DHT22;14766;51.380;13.762;2023-02-28T05:43:55;2.80;63.10
27266;DHT22;14766;51.380;13.762;2023-02-28T05:46:23;2.80;63.10
27266;DHT22;14766;51.380;13.762;2023-02-28T05:48:50;2.80;63.10
27266;DHT22;14766;51.380;13.762;2023-02-28T05:51:17;2.70;63.00
27266;DHT22;14766;51.380;13.762;2023-02-28T05:53:44;2.70;63.00
27266;DHT22;14766;51.380;13.762;2023-02-28T05:56:12;2.70;63.00
27266;DHT22;14766;51.380;13.762;2023-02-28T05:58:39;2.70;63.00
27266;DHT22;14766;51.380;13.762;2023-02-28T06:03:51;2.70;63.00
27266;DHT22;14766;51.380;13.762;2023-02-28T06:06:18;2.60;63.00
27266;DHT22;14766;51.380;13.762;2023-02-28T06:08:46;2.60;63.10
27266;DHT22;14766;51.380;13.762;2023-02-28T06:11:13;2.60;63.00
27266;DHT22;14766;51.380;13.762;2023-02-28T06:13:40;2.60;63.00
27266;DHT22;14766;51.380;13.762;2023-02-28T06:16:09;2.60;63.10
27266;DHT22;14766;51.380;13.762;2023-02-28T06:18:38;2.60;63.30
27266;DHT22;14766;51.380;13.762;2023-02-28T06:21:05;2.60;63.70
27266;DHT22;14766;51.380;13.762;2023-02-28T06:23:32;2.70;64.00
27266;DHT22;14766;51.380;13.762;2023-02-28T06:26:00;2.70;64.00
27266;DHT22;14766;51.380;13.762;2023-02-28T06:28:27;2.80;64.10
27266;DHT22;14766;51.380;13.762;2023-02-28T06:30:54;3.00;64.20
27266;DHT22;14766;51.380;13.762;2023-02-28T06:33:21;3.10;64.40
27266;DHT22;14766;51.380;13.762;2023-02-28T06:35:51;3.30;64.80
27266;DHT22;14766;51.380;13.762;2023-02-28T06:38:19;3.60;65.20
27266;DHT22;14766;51.380;13.762;2023-02-28T06:40:53;3.90;65.40
27266;DHT22;14766;51.380;13.762;2023-02-28T06:43:22;4.30;65.10
27266;DHT22;14766;51.380;13.762;2023-02-28T06:45:49;4.60;64.50
27266;DHT22;14766;51.380;13.762;2023-02-28T06:48:16;5.00;63.70
27266;DHT22;14766;51.380;13.762;2023-02-28T06:50:44;5.40;62.20
27266;DHT22;14766;51.380;13.762;2023-02-28T06:53:12;5.60;60.60
27266;DHT22;14766;51.380;13.762;2023-02-28T06:55:39;5.80;59.70
27266;DHT22;14766;51.380;13.762;2023-02-28T06:58:06;5.80;59.00
27266;DHT22;14766;51.380;13.762;2023-02-28T07:00:42;5.80;58.50
27266;DHT22;14766;51.380;13.762;2023-02-28T07:03:11;5.80;58.40
27266;DHT22;14766;51.380;13.762;2023-02-28T07:05:39;5.80;58.60
27266;DHT22;14766;51.380;13.762;2023-02-28T07:08:06;5.80;58.80
27266;DHT22;14766;51.380;13.762;2023-02-28T07:10:34;5.80;59.20
27266;DHT22;14766;51.380;13.762;2023-02-28T07:13:05;5.80;59.40
27266;DHT22;14766;51.380;13.762;2023-02-28T07:15:32;5.90;59.20
27266;DHT22;14766;51.380;13.762;2023-02-28T07:18:00;6.00;59.00
27266;DHT22;14766;51.380;13.762;2023-02-28T07:20:27;6.00;58.80
27266;DHT22;14766;51.380;13.762;2023-02-28T07:22:54;6.00;58.80
27266;DHT22;14766;51.380;13.762;2023-02-28T07:25:25;6.10;58.70
27266;DHT22;14766;51.380;13.762;2023-02-28T07:27:53;6.10;58.30
27266;DHT22;14766;51.380;13.762;2023-02-28T07:30:21;6.10;58.30
27266;DHT22;14766;51.380;13.762;2023-02-28T07:32:48;6.10;58.40
27266;DHT22;14766;51.380;13.762;2023-02-28T07:35:15;6.10;58.60
27266;DHT22;14766;51.380;13.762;2023-02-28T07:37:42;6.30;59.10
27266;DHT22;14766;51.380;13.762;2023-02-28T07:40:10;6.40;58.20
27266;DHT22;14766;51.380;13.762;2023-02-28T07:42:41;6.60;57.70
27266;DHT22;14766;51.380;13.762;2023-02-28T07:45:10;6.70;57.40
27266;DHT22;14766;51.380;13.762;2023-02-28T07:47:42;6.80;57.50
27266;DHT22;14766;51.380;13.762;2023-02-28T07:50:11;7.00;57.40
27266;DHT22;14766;51.380;13.762;2023-02-28T07:52:38;7.10;56.90
27266;DHT22;14766;51.380;13.762;2023-02-28T07:55:06;7.20;56.30
27266;DHT22;14766;51.380;13.762;2023-02-28T07:57:34;7.30;56.20
27266;DHT22;14766;51.380;13.762;2023-02-28T08:00:05;7.40;56.10
27266;DHT22;14766;51.380;13.762;2023-02-28T08:02:37;7.50;56.50
27266;DHT22;14766;51.380;13.762;2023-02-28T08:05:05;7.80;57.20
27266;DHT22;14766;51.380;13.762;2023-02-28T08:07:32;8.20;57.30
27266;DHT22;14766;51.380;13.762;2023-02-28T08:10:05;8.70;56.40
27266;DHT22;14766;51.380;13.762;2023-02-28T08:12:33;9.30;55.20
27266;DHT22;14766;51.380;13.762;2023-02-28T08:14:59;9.90;54.60
27266;DHT22;14766;51.380;13.762;2023-02-28T08:17:27;10.50;53.20
27266;DHT22;14766;51.380;13.762;2023-02-28T08:19:54;11.10;51.60
27266;DHT22;14766;51.380;13.762;2023-02-28T08:22:22;11.60;49.30
27266;DHT22;14766;51.380;13.762;2023-02-28T08:24:51;12.10;49.10
27266;DHT22;14766;51.380;13.762;2023-02-28T08:27:21;12.50;47.80
27266;DHT22;14766;51.380;13.762;2023-02-28T08:29:49;13.00;47.10
27266;DHT22;14766;51.380;13.762;2023-02-28T08:32:16;13.40;45.10
27266;DHT22;14766;51.380;13.762;2023-02-28T08:34:56;13.70;42.90
27266;DHT22;14766;51.380;13.762;2023-02-28T08:37:23;14.10;41.20
27266;DHT22;14766;51.380;13.762;2023-02-28T08:39:50;14.50;41.10
27266;DHT22;14766;51.380;13.762;2023-02-28T08:42:23;14.80;40.50
27266;DHT22;14766;51.380;13.762;2023-02-28T08:44:51;15.10;38.30
27266;DHT22;14766;51.380;13.762;2023-02-28T08:47:18;15.40;37.40
27266;DHT22;14766;51.380;13.762;2023-02-28T08:49:45;15.60;35.20
27266;DHT22;14766;51.380;13.762;2023-02-28T08:52:20;15.70;36.10
27266;DHT22;14766;51.380;13.762;2023-02-28T08:54:47;15.90;34.40
27266;DHT22;14766;51.380;13.762;2023-02-28T08:57:18;16.00;33.30
27266;DHT22;14766;51.380;13.762;2023-02-28T08:59:45;16.10;33.50
27266;DHT22;14766;51.380;13.762;2023-02-28T09:02:13;16.10;32.70
27266;DHT22;14766;51.380;13.762;2023-02-28T09:04:41;16.10;32.60
27266;DHT22;14766;51.380;13.762;2023-02-28T09:07:11;16.10;32.60
27266;DHT22;14766;51.380;13.762;2023-02-28T09:09:43;16.20;32.60
27266;DHT22;14766;51.380;13.762;2023-02-28T09:12:24;16.20;31.80
27266;DHT22;14766;51.380;13.762;2023-02-28T09:14:52;16.30;30.40
27266;DHT22;14766;51.380;13.762;2023-02-28T09:17:19;16.40;30.40
27266;DHT22;14766;51.380;13.762;2023-02-28T09:19:48;16.40;29.40
27266;DHT22;14766;51.380;13.762;2023-02-28T09:22:17;16.40;30.40
27266;DHT22;14766;51.380;13.762;2023-02-28T09:24:48;16.40;28.90
27266;DHT22;14766;51.380;13.762;2023-02-28T09:27:15;16.40;30.00
27266;DHT22;14766;51.380;13.762;2023-02-28T09:29:43;16.50;30.40
27266;DHT22;14766;51.380;13.762;2023-02-28T09:32:12;16.50;28.90
27266;DHT22;14766;51.380;13.762;2023-02-28T09:34:41;16.50;28.60
27266;DHT22;14766;51.380;13.762;2023-02-28T09:37:08;16.50;28.40
27266;DHT22;14766;51.380;13.762;2023-02-28T09:39:36;16.50;27.00
27266;DHT22;14766;51.380;13.762;2023-02-28T09:42:05;16.40;27.20
27266;DHT22;14766;51.380;13.762;2023-02-28T09:44:43;16.20;27.30
27266;DHT22;14766;51.380;13.762;2023-02-28T09:50:00;15.40;27.30
27266;DHT22;14766;51.380;13.762;2023-02-28T09:52:31;14.90;28.00
27266;DHT22;14766;51.380;13.762;2023-02-28T09:58:01;13.90;28.90
27266;DHT22;14766;51.380;13.762;2023-02-28T10:00:35;13.40;29.30
27266;DHT22;14766;51.380;13.762;2023-02-28T10:03:24;13.10;29.60
27266;DHT22;14766;51.380;13.762;2023-02-28T10:09:08;12.40;30.80
27266;DHT22;14766;51.380;13.762;2023-02-28T10:11:40;12.10;31.00
27266;DHT22;14766;51.380;13.762;2023-02-28T10:14:17;11.80;32.00
27266;DHT22;14766;51.380;13.762;2023-02-28T10:17:10;11.80;33.10
27266;DHT22;14766;51.380;13.762;2023-02-28T10:22:27;11.90;33.40
27266;DHT22;14766;51.380;13.762;2023-02-28T10:24:58;12.10;33.00
27266;DHT22;14766;51.380;13.762;2023-02-28T10:27:32;12.30;32.00
27266;DHT22;14766;51.380;13.762;2023-02-28T10:30:02;12.50;32.40
27266;DHT22;14766;51.380;13.762;2023-02-28T10:32:32;12.70;33.20
27266;DHT22;14766;51.380;13.762;2023-02-28T10:37:41;13.20;32.20
27266;DHT22;14766;51.380;13.762;2023-02-28T10:42:58;13.60;31.10
27266;DHT22;14766;51.380;13.762;2023-02-28T10:45:28;13.70;31.10
27266;DHT22;14766;51.380;13.762;2023-02-28T10:50:52;13.70;30.00
27266;DHT22;14766;51.380;13.762;2023-02-28T10:58:59;13.40;30.60
27266;DHT22;14766;51.380;13.762;2023-02-28T11:03:58;13.40;30.40
27266;DHT22;14766;51.380;13.762;2023-02-28T11:06:29;13.40;31.00
27266;DHT22;14766;51.380;13.762;2023-02-28T11:09:00;13.40;31.30
27266;DHT22;14766;51.380;13.762;2023-02-28T11:11:29;13.50;31.10
27266;DHT22;14766;51.380;13.762;2023-02-28T11:14:04;13.40;30.90
27266;DHT22;14766;51.380;13.762;2023-02-28T11:16:34;13.30;30.60
27266;DHT22;14766;51.380;13.762;2023-02-28T11:19:04;13.10;31.40
27266;DHT22;14766;51.380;13.762;2023-02-28T11:21:35;13.00;31.40
27266;DHT22;14766;51.380;13.762;2023-02-28T11:24:24;12.80;31.60
27266;DHT22;14766;51.380;13.762;2023-02-28T11:26:53;12.70;32.50
27266;DHT22;14766;51.380;13.762;2023-02-28T11:29:28;12.60;32.70
27266;DHT22;14766;51.380;13.762;2023-02-28T11:34:37;12.40;32.90
27266;DHT22;14766;51.380;13.762;2023-02-28T11:37:09;12.40;32.80
27266;DHT22;14766;51.380;13.762;2023-02-28T11:39:37;12.30;32.90
27266;DHT22;14766;51.380;13.762;2023-02-28T11:45:21;12.10;33.40
27266;DHT22;14766;51.380;13.762;2023-02-28T11:53:21;11.80;34.30
27266;DHT22;14766;51.380;13.762;2023-02-28T11:55:58;11.70;34.00
27266;DHT22;14766;51.380;13.762;2023-02-28T12:06:36;11.20;35.60
27266;DHT22;14766;51.380;13.762;2023-02-28T12:12:37;11.20;35.30
27266;DHT22;14766;51.380;13.762;2023-02-28T12:15:28;11.20;34.90
27266;DHT22;14766;51.380;13.762;2023-02-28T12:20:39;11.10;35.30
27266;DHT22;14766;51.380;13.762;2023-02-28T12:28:25;11.00;35.30
27266;DHT22;14766;51.380;13.762;2023-02-28T12:30:58;10.90;35.20
27266;DHT22;14766;51.380;13.762;2023-02-28T12:33:33;10.90;35.10
27266;DHT22;14766;51.380;13.762;2023-02-28T12:36:09;10.70;35.60
27266;DHT22;14766;51.380;13.762;2023-02-28T12:39:00;10.70;36.00
27266;DHT22;14766;51.380;13.762;2023-02-28T12:44:40;10.70;36.40
27266;DHT22;14766;51.380;13.762;2023-02-28T12:47:15;10.60;36.20
27266;DHT22;14766;51.380;13.762;2023-02-28T12:49:50;10.60;36.60
27266;DHT22;14766;51.380;13.762;2023-02-28T12:55:29;10.60;36.20
27266;DHT22;14766;51.380;13.762;2023-02-28T12:58:21;10.60;35.70
27266;DHT22;14766;51.380;13.762;2023-02-28T13:09:15;10.30;36.20
27266;DHT22;14766;51.380;13.762;2023-02-28T13:11:53;10.20;36.30
27266;DHT22;14766;51.380;13.762;2023-02-28T13:22:41;10.00;37.20
27266;DHT22;14766;51.380;13.762;2023-02-28T13:28:10;10.00;37.90
27266;DHT22;14766;51.380;13.762;2023-02-28T13:31:04;9.90;37.40
27266;DHT22;14766;51.380;13.762;2023-02-28T13:38:42;9.80;37.30
27266;DHT22;14766;51.380;13.762;2023-02-28T13:44:00;9.70;37.90
27266;DHT22;14766;51.380;13.762;2023-02-28T13:46:28;9.70;37.70
27266;DHT22;14766;51.380;13.762;2023-02-28T13:48:56;9.70;37.80
27266;DHT22;14766;51.380;13.762;2023-02-28T13:54:18;9.60;38.10
27266;DHT22;14766;51.380;13.762;2023-02-28T13:59:40;9.60;38.50
27266;DHT22;14766;51.380;13.762;2023-02-28T14:05:19;9.50;38.30
27266;DHT22;14766;51.380;13.762;2023-02-28T14:07:57;9.60;38.70
27266;DHT22;14766;51.380;13.762;2023-02-28T14:10:45;9.50;39.70
27266;DHT22;14766;51.380;13.762;2023-02-28T14:13:45;9.60;39.20
27266;DHT22;14766;51.380;13.762;2023-02-28T14:16:20;9.60;39.30
27266;DHT22;14766;51.380;13.762;2023-02-28T14:18:58;9.60;38.90
27266;DHT22;14766;51.380;13.762;2023-02-28T14:21:29;9.60;39.00
27266;DHT22;14766;51.380;13.762;2023-02-28T14:33:13;9.50;38.50
27266;DHT22;14766;51.380;13.762;2023-02-28T14:38:05;9.30;38.60
27266;DHT22;14766;51.380;13.762;2023-02-28T14:40:34;9.30;39.50
27266;DHT22;14766;51.380;13.762;2023-02-28T14:43:05;9.30;39.20
27266;DHT22;14766;51.380;13.762;2023-02-28T14:45:34;9.30;39.70
27266;DHT22;14766;51.380;13.762;2023-02-28T14:48:04;9.30;39.60
27266;DHT22;14766;51.380;13.762;2023-02-28T14:50:37;9.30;39.60
27266;DHT22;14766;51.380;13.762;2023-02-28T14:53:09;9.30;39.80
27266;DHT22;14766;51.380;13.762;2023-02-28T14:55:45;9.20;39.60
27266;DHT22;14766;51.380;13.762;2023-02-28T14:58:32;9.20;39.40
27266;DHT22;14766;51.380;13.762;2023-02-28T15:01:01;9.10;39.50
27266;DHT22;14766;51.380;13.762;2023-02-28T15:03:34;9.10;39.70
27266;DHT22;14766;51.380;13.762;2023-02-28T15:06:12;9.10;39.70
27266;DHT22;14766;51.380;13.762;2023-02-28T15:08:40;9.10;39.80
27266;DHT22;14766;51.380;13.762;2023-02-28T15:11:18;9.00;39.60
27266;DHT22;14766;51.380;13.762;2023-02-28T15:13:48;9.00;39.60
27266;DHT22;14766;51.380;13.762;2023-02-28T15:16:23;8.90;39.60
27266;DHT22;14766;51.380;13.762;2023-02-28T15:21:35;8.80;39.70
27266;DHT22;14766;51.380;13.762;2023-02-28T15:26:55;8.80;40.00
27266;DHT22;14766;51.380;13.762;2023-02-28T15:29:26;8.70;40.20
27266;DHT22;14766;51.380;13.762;2023-02-28T15:32:03;8.60;40.40
27266;DHT22;14766;51.380;13.762;2023-02-28T15:34:40;8.60;40.50
27266;DHT22;14766;51.380;13.762;2023-02-28T15:42:33;8.60;41.10
27266;DHT22;14766;51.380;13.762;2023-02-28T15:45:00;8.60;40.80
27266;DHT22;14766;51.380;13.762;2023-02-28T15:47:29;8.60;40.90
27266;DHT22;14766;51.380;13.762;2023-02-28T15:50:02;8.50;41.10
27266;DHT22;14766;51.380;13.762;2023-02-28T15:52:38;8.50;41.30
27266;DHT22;14766;51.380;13.762;2023-02-28T15:55:19;8.50;41.40
27266;DHT22;14766;51.380;13.762;2023-02-28T15:57:51;8.50;41.50
27266;DHT22;14766;51.380;13.762;2023-02-28T16:00:22;8.50;41.50
27266;DHT22;14766;51.380;13.762;2023-02-28T16:02:50;8.50;41.60
27266;DHT22;14766;51.380;13.762;2023-02-28T16:08:01;8.50;41.90
27266;DHT22;14766;51.380;13.762;2023-02-28T16:10:29;8.50;42.20
27266;DHT22;14766;51.380;13.762;2023-02-28T16:12:57;8.50;42.20
27266;DHT22;14766;51.380;13.762;2023-02-28T16:15:27;8.50;42.20
27266;DHT22;14766;51.380;13.762;2023-02-28T16:17:56;8.50;41.90
27266;DHT22;14766;51.380;13.762;2023-02-28T16:20:29;8.50;42.00
27266;DHT22;14766;51.380;13.762;2023-02-28T16:22:58;8.50;42.20
27266;DHT22;14766;51.380;13.762;2023-02-28T16:25:40;8.40;42.30
27266;DHT22;14766;51.380;13.762;2023-02-28T16:28:35;8.40;42.60
27266;DHT22;14766;51.380;13.762;2023-02-28T16:31:05;8.40;42.60
27266;DHT22;14766;51.380;13.762;2023-02-28T16:33:33;8.40;42.70
27266;DHT22;14766;51.380;13.762;2023-02-28T16:36:01;8.30;42.80
27266;DHT22;14766;51.380;13.762;2023-02-28T16:38:28;8.30;43.00
27266;DHT22;14766;51.380;13.762;2023-02-28T16:40:58;8.30;43.30
27266;DHT22;14766;51.380;13.762;2023-02-28T16:43:26;8.20;43.60
27266;DHT22;14766;51.380;13.762;2023-02-28T16:45:56;8.20;43.80
27266;DHT22;14766;51.380;13.762;2023-02-28T16:48:28;8.20;43.80
27266;DHT22;14766;51.380;13.762;2023-02-28T16:50:56;8.10;44.10
27266;DHT22;14766;51.380;13.762;2023-02-28T16:53:23;8.10;44.50
27266;DHT22;14766;51.380;13.762;2023-02-28T16:55:51;8.00;44.60
27266;DHT22;14766;51.380;13.762;2023-02-28T16:58:18;7.90;44.70
27266;DHT22;14766;51.380;13.762;2023-02-28T17:00:56;7.90;44.70
27266;DHT22;14766;51.380;13.762;2023-02-28T17:03:25;7.80;44.90
27266;DHT22;14766;51.380;13.762;2023-02-28T17:05:59;7.80;45.20
27266;DHT22;14766;51.380;13.762;2023-02-28T17:08:26;7.70;46.00
27266;DHT22;14766;51.380;13.762;2023-02-28T17:10:56;7.60;45.60
27266;DHT22;14766;51.380;13.762;2023-02-28T17:13:23;7.60;45.70
27266;DHT22;14766;51.380;13.762;2023-02-28T17:15:50;7.50;45.80
27266;DHT22;14766;51.380;13.762;2023-02-28T17:18:18;7.40;46.10
27266;DHT22;14766;51.380;13.762;2023-02-28T17:20:46;7.40;46.40
27266;DHT22;14766;51.380;13.762;2023-02-28T17:23:28;7.30;46.60
27266;DHT22;14766;51.380;13.762;2023-02-28T17:25:55;7.20;46.80
27266;DHT22;14766;51.380;13.762;2023-02-28T17:28:24;7.20;47.10
27266;DHT22;14766;51.380;13.762;2023-02-28T17:30:51;7.10;47.10
27266;DHT22;14766;51.380;13.762;2023-02-28T17:33:18;7.10;47.40
27266;DHT22;14766;51.380;13.762;2023-02-28T17:35:45;7.00;47.50
27266;DHT22;14766;51.380;13.762;2023-02-28T17:38:16;6.90;47.70
27266;DHT22;14766;51.380;13.762;2023-02-28T17:40:43;6.90;47.90
27266;DHT22;14766;51.380;13.762;2023-02-28T17:43:11;6.80;47.90
27266;DHT22;14766;51.380;13.762;2023-02-28T17:45:38;6.70;48.10
27266;DHT22;14766;51.380;13.762;2023-02-28T17:48:06;6.70;48.30
27266;DHT22;14766;51.380;13.762;2023-02-28T17:50:33;6.60;48.30
27266;DHT22;14766;51.380;13.762;2023-02-28T17:53:00;6.60;48.40
27266;DHT22;14766;51.380;13.762;2023-02-28T17:55:27;6.50;48.70
27266;DHT22;14766;51.380;13.762;2023-02-28T17:57:54;6.50;48.90
27266;DHT22;14766;51.380;13.762;2023-02-28T18:00:22;6.40;48.90
27266;DHT22;14766;51.380;13.762;2023-02-28T18:02:50;6.40;49.10
27266;DHT22;14766;51.380;13.762;2023-02-28T18:05:18;6.40;49.30
27266;DHT22;14766;51.380;13.762;2023-02-28T18:07:45;6.30;49.30
27266;DHT22;14766;51.380;13.762;2023-02-28T18:10:18;6.20;49.30
27266;DHT22;14766;51.380;13.762;2023-02-28T18:12:50;6.20;49.20
27266;DHT22;14766;51.380;13.762;2023-02-28T18:15:19;6.10;49.30
27266;DHT22;14766;51.380;13.762;2023-02-28T18:17:49;6.10;49.40
27266;DHT22;14766;51.380;13.762;2023-02-28T18:20:17;6.00;49.60
27266;DHT22;14766;51.380;13.762;2023-02-28T18:22:44;6.00;49.80
27266;DHT22;14766;51.380;13.762;2023-02-28T18:25:12;5.90;49.80
27266;DHT22;14766;51.380;13.762;2023-02-28T18:27:45;5.90;49.90
27266;DHT22;14766;51.380;13.762;2023-02-28T18:30:31;5.80;50.20
27266;DHT22;14766;51.380;13.762;2023-02-28T18:33:00;5.80;50.40
27266;DHT22;14766;51.380;13.762;2023-02-28T18:35:28;5.80;50.50
27266;DHT22;14766;51.380;13.762;2023-02-28T18:40:36;5.70;50.70
27266;DHT22;14766;51.380;13.762;2023-02-28T18:43:04;5.60;50.90
27266;DHT22;14766;51.380;13.762;2023-02-28T18:45:35;5.60;50.90
27266;DHT22;14766;51.380;13.762;2023-02-28T18:48:02;5.60;51.00